Terminal Aerodrome Forecast
Issued by NWS

Current Version | Previous Version | Text Only | Print | Product List | Glossary On
Versions: 1 2 3 4 5 6 7 8 9 10 11 12 13 14 15 16
000
FTUS45 KGJT 281732
TAFEGE
TAF
KEGE 281732Z 2818/2918 VRB03KT P6SM VCSH BKN120
     FM282000 28007KT P6SM VCTS SCT090CB BKN120
     FM290200 06003KT P6SM SCT100 BKN130
     FM291000 VRB03KT P6SM SCT100=

USA.gov is the U.S. government's official web portal to all federal, state and local government web resources and services.